sensor_id;sensor_type;location;lat;lon;timestamp;P1;durP1;ratioP1;P2;durP2;ratioP2
67503;SDS011;54351;49.108;1.502;2022-10-16T00:21:54;219.75;;;205.40;;
67503;SDS011;54351;49.108;1.502;2022-10-16T00:24:22;228.65;;;214.68;;
67503;SDS011;54351;49.108;1.502;2022-10-16T00:26:49;299.42;;;280.50;;
67503;SDS011;54351;49.108;1.502;2022-10-16T00:29:15;374.30;;;349.73;;
67503;SDS011;54351;49.108;1.502;2022-10-16T00:56:02;307.38;;;287.73;;
67503;SDS011;54351;49.108;1.502;2022-10-16T02:48:15;152.60;;;142.60;;
67503;SDS011;54351;49.108;1.502;2022-10-16T02:56:48;104.03;;;96.93;;
67503;SDS011;54351;49.108;1.502;2022-10-16T04:25:25;285.08;;;266.23;;
67503;SDS011;54351;49.108;1.502;2022-10-16T04:27:54;298.63;;;278.27;;
67503;SDS011;54351;49.108;1.502;2022-10-16T04:30:20;331.27;;;307.80;;
67503;SDS011;54351;49.108;1.502;2022-10-16T04:32:50;354.38;;;329.05;;
67503;SDS011;54351;49.108;1.502;2022-10-16T04:35:19;394.40;;;365.48;;
67503;SDS011;54351;49.108;1.502;2022-10-16T04:37:46;342.52;;;318.45;;
67503;SDS011;54351;49.108;1.502;2022-10-16T04:40:12;345.23;;;320.60;;
67503;SDS011;54351;49.108;1.502;2022-10-16T04:42:38;312.13;;;290.83;;
67503;SDS011;54351;49.108;1.502;2022-10-16T04:45:04;317.05;;;294.83;;
67503;SDS011;54351;49.108;1.502;2022-10-16T04:47:31;341.15;;;316.85;;
67503;SDS011;54351;49.108;1.502;2022-10-16T04:49:57;327.70;;;305.40;;
67503;SDS011;54351;49.108;1.502;2022-10-16T04:52:27;269.30;;;251.40;;
67503;SDS011;54351;49.108;1.502;2022-10-16T04:54:53;274.92;;;257.13;;
67503;SDS011;54351;49.108;1.502;2022-10-16T04:57:20;292.10;;;271.98;;
67503;SDS011;54351;49.108;1.502;2022-10-16T04:59:46;279.80;;;261.58;;
67503;SDS011;54351;49.108;1.502;2022-10-16T05:02:12;288.42;;;269.80;;
67503;SDS011;54351;49.108;1.502;2022-10-16T05:04:38;270.50;;;253.82;;
67503;SDS011;54351;49.108;1.502;2022-10-16T05:07:04;160.45;;;150.68;;
67503;SDS011;54351;49.108;1.502;2022-10-16T05:09:30;93.07;;;86.82;;
67503;SDS011;54351;49.108;1.502;2022-10-16T05:11:56;82.28;;;77.28;;
67503;SDS011;54351;49.108;1.502;2022-10-16T05:14:22;97.60;;;91.00;;
67503;SDS011;54351;49.108;1.502;2022-10-16T05:16:48;81.15;;;75.97;;
67503;SDS011;54351;49.108;1.502;2022-10-16T05:19:15;75.90;;;70.53;;
67503;SDS011;54351;49.108;1.502;2022-10-16T05:21:41;217.45;;;203.25;;
67503;SDS011;54351;49.108;1.502;2022-10-16T05:24:07;199.95;;;187.10;;
67503;SDS011;54351;49.108;1.502;2022-10-16T05:26:34;132.57;;;124.40;;
67503;SDS011;54351;49.108;1.502;2022-10-16T05:29:00;167.85;;;157.50;;
67503;SDS011;54351;49.108;1.502;2022-10-16T05:31:26;159.93;;;150.05;;
67503;SDS011;54351;49.108;1.502;2022-10-16T05:33:52;147.85;;;138.60;;
67503;SDS011;54351;49.108;1.502;2022-10-16T05:36:23;102.60;;;96.28;;
67503;SDS011;54351;49.108;1.502;2022-10-16T05:38:50;107.43;;;100.93;;
67503;SDS011;54351;49.108;1.502;2022-10-16T05:41:16;138.50;;;129.65;;
67503;SDS011;54351;49.108;1.502;2022-10-16T05:43:47;140.82;;;132.07;;
67503;SDS011;54351;49.108;1.502;2022-10-16T05:46:15;311.65;;;291.08;;
67503;SDS011;54351;49.108;1.502;2022-10-16T05:48:41;297.10;;;277.50;;
67503;SDS011;54351;49.108;1.502;2022-10-16T05:51:09;340.67;;;318.30;;
67503;SDS011;54351;49.108;1.502;2022-10-16T05:53:35;321.75;;;301.85;;
67503;SDS011;54351;49.108;1.502;2022-10-16T05:56:02;301.95;;;284.05;;
67503;SDS011;54351;49.108;1.502;2022-10-16T05:58:29;348.95;;;325.73;;
67503;SDS011;54351;49.108;1.502;2022-10-16T06:00:56;342.73;;;320.98;;
67503;SDS011;54351;49.108;1.502;2022-10-16T06:03:25;281.48;;;264.38;;
67503;SDS011;54351;49.108;1.502;2022-10-16T06:05:51;312.48;;;292.77;;
67503;SDS011;54351;49.108;1.502;2022-10-16T06:08:18;315.17;;;296.05;;
67503;SDS011;54351;49.108;1.502;2022-10-16T06:10:44;321.02;;;301.05;;
67503;SDS011;54351;49.108;1.502;2022-10-16T06:13:11;350.13;;;326.60;;
67503;SDS011;54351;49.108;1.502;2022-10-16T06:15:38;345.33;;;322.20;;
67503;SDS011;54351;49.108;1.502;2022-10-16T06:18:06;352.50;;;328.75;;
67503;SDS011;54351;49.108;1.502;2022-10-16T06:20:32;364.85;;;339.70;;
67503;SDS011;54351;49.108;1.502;2022-10-16T06:22:58;297.58;;;277.67;;
67503;SDS011;54351;49.108;1.502;2022-10-16T06:25:24;317.60;;;295.92;;
67503;SDS011;54351;49.108;1.502;2022-10-16T06:27:50;292.55;;;272.52;;
67503;SDS011;54351;49.108;1.502;2022-10-16T06:30:16;288.25;;;268.92;;
67503;SDS011;54351;49.108;1.502;2022-10-16T06:32:42;248.85;;;232.07;;
67503;SDS011;54351;49.108;1.502;2022-10-16T06:35:08;216.85;;;202.77;;
67503;SDS011;54351;49.108;1.502;2022-10-16T06:37:35;216.30;;;202.93;;
67503;SDS011;54351;49.108;1.502;2022-10-16T06:40:01;247.82;;;232.13;;
67503;SDS011;54351;49.108;1.502;2022-10-16T06:42:29;242.95;;;226.77;;
67503;SDS011;54351;49.108;1.502;2022-10-16T06:44:55;214.80;;;201.45;;
67503;SDS011;54351;49.108;1.502;2022-10-16T06:47:21;226.43;;;211.95;;
67503;SDS011;54351;49.108;1.502;2022-10-16T06:49:47;230.95;;;215.90;;
67503;SDS011;54351;49.108;1.502;2022-10-16T06:52:13;210.65;;;197.25;;
67503;SDS011;54351;49.108;1.502;2022-10-16T06:54:39;259.13;;;241.82;;
67503;SDS011;54351;49.108;1.502;2022-10-16T06:57:05;310.50;;;288.77;;
67503;SDS011;54351;49.108;1.502;2022-10-16T06:59:32;323.13;;;299.80;;
67503;SDS011;54351;49.108;1.502;2022-10-16T07:02:01;351.77;;;326.23;;
67503;SDS011;54351;49.108;1.502;2022-10-16T07:04:27;298.90;;;278.45;;
67503;SDS011;54351;49.108;1.502;2022-10-16T07:06:53;249.45;;;233.57;;
67503;SDS011;54351;49.108;1.502;2022-10-16T07:09:19;241.90;;;226.23;;
67503;SDS011;54351;49.108;1.502;2022-10-16T07:11:45;215.13;;;201.23;;
67503;SDS011;54351;49.108;1.502;2022-10-16T07:14:16;223.38;;;208.95;;
67503;SDS011;54351;49.108;1.502;2022-10-16T07:16:43;198.95;;;185.20;;
67503;SDS011;54351;49.108;1.502;2022-10-16T07:19:09;202.35;;;189.70;;
67503;SDS011;54351;49.108;1.502;2022-10-16T07:21:37;159.63;;;148.82;;
67503;SDS011;54351;49.108;1.502;2022-10-16T07:24:06;169.95;;;158.32;;
67503;SDS011;54351;49.108;1.502;2022-10-16T07:26:33;212.85;;;200.18;;
67503;SDS011;54351;49.108;1.502;2022-10-16T07:35:14;125.55;;;117.40;;
67503;SDS011;54351;49.108;1.502;2022-10-16T07:37:43;163.05;;;152.48;;
67503;SDS011;54351;49.108;1.502;2022-10-16T07:40:10;220.60;;;207.85;;
67503;SDS011;54351;49.108;1.502;2022-10-16T07:42:36;259.58;;;244.30;;
67503;SDS011;54351;49.108;1.502;2022-10-16T07:45:02;252.52;;;237.90;;
67503;SDS011;54351;49.108;1.502;2022-10-16T07:47:28;303.85;;;285.17;;
67503;SDS011;54351;49.108;1.502;2022-10-16T07:49:54;315.63;;;295.10;;
67503;SDS011;54351;49.108;1.502;2022-10-16T07:52:20;287.30;;;270.45;;
67503;SDS011;54351;49.108;1.502;2022-10-16T07:54:46;371.52;;;345.50;;
67503;SDS011;54351;49.108;1.502;2022-10-16T07:57:13;468.33;;;431.27;;
67503;SDS011;54351;49.108;1.502;2022-10-16T07:59:44;413.73;;;383.00;;
67503;SDS011;54351;49.108;1.502;2022-10-16T08:02:11;389.20;;;359.75;;
67503;SDS011;54351;49.108;1.502;2022-10-16T08:04:37;481.50;;;443.52;;
67503;SDS011;54351;49.108;1.502;2022-10-16T08:07:03;448.85;;;414.00;;
67503;SDS011;54351;49.108;1.502;2022-10-16T08:09:29;450.15;;;415.23;;
67503;SDS011;54351;49.108;1.502;2022-10-16T08:11:55;500.27;;;460.33;;
67503;SDS011;54351;49.108;1.502;2022-10-16T08:14:22;456.45;;;421.45;;
67503;SDS011;54351;49.108;1.502;2022-10-16T08:16:48;481.77;;;443.77;;
67503;SDS011;54351;49.108;1.502;2022-10-16T08:19:14;556.67;;;509.13;;
67503;SDS011;54351;49.108;1.502;2022-10-16T08:21:40;564.70;;;516.63;;
67503;SDS011;54351;49.108;1.502;2022-10-16T08:24:06;534.85;;;487.70;;
67503;SDS011;54351;49.108;1.502;2022-10-16T08:26:33;522.05;;;476.88;;
67503;SDS011;54351;49.108;1.502;2022-10-16T08:28:59;550.95;;;502.10;;
67503;SDS011;54351;49.108;1.502;2022-10-16T08:31:25;403.00;;;369.42;;
67503;SDS011;54351;49.108;1.502;2022-10-16T08:33:52;341.77;;;313.45;;
67503;SDS011;54351;49.108;1.502;2022-10-16T08:36:18;441.52;;;402.73;;
67503;SDS011;54351;49.108;1.502;2022-10-16T08:38:46;340.50;;;314.13;;
67503;SDS011;54351;49.108;1.502;2022-10-16T08:41:26;446.38;;;407.02;;
67503;SDS011;54351;49.108;1.502;2022-10-16T08:48:54;376.65;;;345.05;;
67503;SDS011;54351;49.108;1.502;2022-10-16T08:51:24;440.08;;;402.70;;
67503;SDS011;54351;49.108;1.502;2022-10-16T08:53:56;393.17;;;364.33;;
67503;SDS011;54351;49.108;1.502;2022-10-16T08:56:23;434.40;;;401.95;;
67503;SDS011;54351;49.108;1.502;2022-10-16T08:58:49;414.10;;;383.35;;
67503;SDS011;54351;49.108;1.502;2022-10-16T09:01:17;434.63;;;401.80;;
67503;SDS011;54351;49.108;1.502;2022-10-16T09:19:50;450.65;;;411.55;;
67503;SDS011;54351;49.108;1.502;2022-10-16T09:22:17;392.60;;;361.88;;
67503;SDS011;54351;49.108;1.502;2022-10-16T09:24:45;463.38;;;426.23;;
67503;SDS011;54351;49.108;1.502;2022-10-16T09:27:14;423.35;;;389.52;;
67503;SDS011;54351;49.108;1.502;2022-10-16T09:29:40;446.80;;;413.10;;
67503;SDS011;54351;49.108;1.502;2022-10-16T09:32:14;468.65;;;431.15;;
67503;SDS011;54351;49.108;1.502;2022-10-16T09:34:48;448.15;;;414.40;;
67503;SDS011;54351;49.108;1.502;2022-10-16T09:37:17;518.58;;;479.17;;
67503;SDS011;54351;49.108;1.502;2022-10-16T09:39:46;541.53;;;498.75;;
67503;SDS011;54351;49.108;1.502;2022-10-16T09:42:23;514.38;;;473.92;;
67503;SDS011;54351;49.108;1.502;2022-10-16T09:44:52;530.10;;;487.88;;
67503;SDS011;54351;49.108;1.502;2022-10-16T09:53:43;538.60;;;495.58;;
67503;SDS011;54351;49.108;1.502;2022-10-16T10:09:22;581.00;;;533.42;;
67503;SDS011;54351;49.108;1.502;2022-10-16T10:17:56;411.50;;;375.42;;
67503;SDS011;54351;49.108;1.502;2022-10-16T10:32:47;425.92;;;390.02;;
67503;SDS011;54351;49.108;1.502;2022-10-16T10:35:47;235.98;;;216.68;;
67503;SDS011;54351;49.108;1.502;2022-10-16T10:50:34;341.25;;;317.15;;
67503;SDS011;54351;49.108;1.502;2022-10-16T11:04:54;212.88;;;196.15;;
67503;SDS011;54351;49.108;1.502;2022-10-16T11:07:28;242.35;;;224.48;;
67503;SDS011;54351;49.108;1.502;2022-10-16T11:09:57;427.35;;;398.42;;
67503;SDS011;54351;49.108;1.502;2022-10-16T11:12:34;367.02;;;343.17;;
67503;SDS011;54351;49.108;1.502;2022-10-16T11:15:10;259.25;;;240.82;;
67503;SDS011;54351;49.108;1.502;2022-10-16T11:17:39;373.65;;;349.75;;
67503;SDS011;54351;49.108;1.502;2022-10-16T11:20:19;256.65;;;238.27;;
67503;SDS011;54351;49.108;1.502;2022-10-16T11:23:05;242.13;;;223.95;;
67503;SDS011;54351;49.108;1.502;2022-10-16T11:25:33;297.25;;;277.58;;
67503;SDS011;54351;49.108;1.502;2022-10-16T11:30:31;427.92;;;397.25;;
67503;SDS011;54351;49.108;1.502;2022-10-16T11:33:03;606.70;;;556.67;;
67503;SDS011;54351;49.108;1.502;2022-10-16T11:38:02;720.50;;;657.00;;
67503;SDS011;54351;49.108;1.502;2022-10-16T11:40:33;672.53;;;616.00;;
67503;SDS011;54351;49.108;1.502;2022-10-16T11:43:35;701.35;;;643.00;;
67503;SDS011;54351;49.108;1.502;2022-10-16T11:45:53;746.55;;;682.30;;
67503;SDS011;54351;49.108;1.502;2022-10-16T11:48:31;818.40;;;743.78;;
67503;SDS011;54351;49.108;1.502;2022-10-16T11:51:08;854.83;;;776.17;;
67503;SDS011;54351;49.108;1.502;2022-10-16T11:54:02;772.15;;;704.95;;
67503;SDS011;54351;49.108;1.502;2022-10-16T11:56:30;863.97;;;782.50;;
67503;SDS011;54351;49.108;1.502;2022-10-16T11:59:10;858.42;;;778.25;;
67503;SDS011;54351;49.108;1.502;2022-10-16T12:02:28;911.08;;;825.78;;
67503;SDS011;54351;49.108;1.502;2022-10-16T12:04:33;914.17;;;828.15;;
67503;SDS011;54351;49.108;1.502;2022-10-16T12:07:05;872.38;;;800.17;;
67503;SDS011;54351;49.108;1.502;2022-10-16T12:09:32;853.25;;;772.90;;
67503;SDS011;54351;49.108;1.502;2022-10-16T12:12:00;886.33;;;808.67;;
67503;SDS011;54351;49.108;1.502;2022-10-16T12:16:56;888.95;;;812.15;;
67503;SDS011;54351;49.108;1.502;2022-10-16T12:19:29;880.83;;;801.70;;
67503;SDS011;54351;49.108;1.502;2022-10-16T12:24:44;885.72;;;808.35;;
67503;SDS011;54351;49.108;1.502;2022-10-16T12:27:30;896.25;;;813.95;;
67503;SDS011;54351;49.108;1.502;2022-10-16T12:29:59;867.95;;;793.22;;
67503;SDS011;54351;49.108;1.502;2022-10-16T12:32:30;864.30;;;792.60;;
67503;SDS011;54351;49.108;1.502;2022-10-16T12:34:57;889.47;;;812.40;;
67503;SDS011;54351;49.108;1.502;2022-10-16T12:40:25;845.28;;;776.25;;
67503;SDS011;54351;49.108;1.502;2022-10-16T12:42:52;869.67;;;798.75;;
67503;SDS011;54351;49.108;1.502;2022-10-16T12:47:56;838.63;;;774.08;;
67503;SDS011;54351;49.108;1.502;2022-10-16T12:53:00;803.53;;;738.10;;
67503;SDS011;54351;49.108;1.502;2022-10-16T12:55:26;850.90;;;782.78;;
67503;SDS011;54351;49.108;1.502;2022-10-16T13:06:04;810.03;;;739.80;;
67503;SDS011;54351;49.108;1.502;2022-10-16T13:11:20;768.97;;;704.15;;
67503;SDS011;54351;49.108;1.502;2022-10-16T13:13:58;834.38;;;766.65;;
67503;SDS011;54351;49.108;1.502;2022-10-16T13:21:48;871.80;;;794.67;;
67503;SDS011;54351;49.108;1.502;2022-10-16T13:29:18;921.55;;;837.63;;
67503;SDS011;54351;49.108;1.502;2022-10-16T13:31:44;926.58;;;842.42;;
67503;SDS011;54351;49.108;1.502;2022-10-16T13:34:14;880.28;;;799.03;;
67503;SDS011;54351;49.108;1.502;2022-10-16T13:36:51;885.83;;;800.42;;
67503;SDS011;54351;49.108;1.502;2022-10-16T13:39:25;869.72;;;787.35;;
67503;SDS011;54351;49.108;1.502;2022-10-16T13:42:10;867.60;;;786.63;;
67503;SDS011;54351;49.108;1.502;2022-10-16T13:44:41;775.58;;;706.15;;
67503;SDS011;54351;49.108;1.502;2022-10-16T13:47:18;801.42;;;729.03;;
67503;SDS011;54351;49.108;1.502;2022-10-16T13:49:45;808.45;;;735.38;;
67503;SDS011;54351;49.108;1.502;2022-10-16T13:52:16;812.47;;;738.03;;
67503;SDS011;54351;49.108;1.502;2022-10-16T13:57:11;705.45;;;644.45;;
67503;SDS011;54351;49.108;1.502;2022-10-16T13:59:38;703.97;;;644.03;;
67503;SDS011;54351;49.108;1.502;2022-10-16T14:02:50;682.35;;;624.40;;
67503;SDS011;54351;49.108;1.502;2022-10-16T14:04:54;707.25;;;647.38;;
67503;SDS011;54351;49.108;1.502;2022-10-16T14:07:25;681.92;;;624.47;;
67503;SDS011;54351;49.108;1.502;2022-10-16T14:10:01;648.43;;;594.60;;
67503;SDS011;54351;49.108;1.502;2022-10-16T14:12:59;682.67;;;624.95;;
67503;SDS011;54351;49.108;1.502;2022-10-16T14:21:47;568.10;;;521.40;;
67503;SDS011;54351;49.108;1.502;2022-10-16T14:27:29;475.02;;;435.70;;
67503;SDS011;54351;49.108;1.502;2022-10-16T14:30:33;496.50;;;455.75;;
67503;SDS011;54351;49.108;1.502;2022-10-16T14:36:18;377.08;;;347.52;;
67503;SDS011;54351;49.108;1.502;2022-10-16T14:44:52;333.08;;;306.35;;
67503;SDS011;54351;49.108;1.502;2022-10-16T14:53:45;331.10;;;305.92;;
67503;SDS011;54351;49.108;1.502;2022-10-16T15:08:51;194.02;;;181.48;;
67503;SDS011;54351;49.108;1.502;2022-10-16T15:14:49;156.40;;;145.77;;
67503;SDS011;54351;49.108;1.502;2022-10-16T15:17:30;152.80;;;141.95;;
67503;SDS011;54351;49.108;1.502;2022-10-16T15:20:02;179.90;;;167.57;;
67503;SDS011;54351;49.108;1.502;2022-10-16T15:22:52;209.70;;;194.93;;
67503;SDS011;54351;49.108;1.502;2022-10-16T15:37:58;230.82;;;215.20;;
67503;SDS011;54351;49.108;1.502;2022-10-16T15:44:09;300.98;;;282.15;;
67503;SDS011;54351;49.108;1.502;2022-10-16T16:29:22;165.20;;;153.63;;
67503;SDS011;54351;49.108;1.502;2022-10-16T16:34:52;178.35;;;166.13;;
67503;SDS011;54351;49.108;1.502;2022-10-16T16:37:30;167.88;;;156.52;;
67503;SDS011;54351;49.108;1.502;2022-10-16T16:42:53;167.88;;;155.23;;
67503;SDS011;54351;49.108;1.502;2022-10-16T16:54:43;148.48;;;137.23;;
67503;SDS011;54351;49.108;1.502;2022-10-16T17:00:37;216.73;;;201.98;;
67503;SDS011;54351;49.108;1.502;2022-10-16T17:03:10;203.68;;;189.07;;
67503;SDS011;54351;49.108;1.502;2022-10-16T17:05:39;232.07;;;215.80;;
67503;SDS011;54351;49.108;1.502;2022-10-16T17:08:11;213.43;;;198.07;;
67503;SDS011;54351;49.108;1.502;2022-10-16T17:16:34;243.23;;;225.38;;
67503;SDS011;54351;49.108;1.502;2022-10-16T17:19:04;258.33;;;240.10;;
67503;SDS011;54351;49.108;1.502;2022-10-16T17:21:32;284.23;;;264.63;;
67503;SDS011;54351;49.108;1.502;2022-10-16T17:57:36;463.88;;;427.85;;
67503;SDS011;54351;49.108;1.502;2022-10-16T18:05:05;458.80;;;424.00;;
67503;SDS011;54351;49.108;1.502;2022-10-16T18:07:31;502.70;;;463.70;;
67503;SDS011;54351;49.108;1.502;2022-10-16T18:09:57;496.00;;;458.20;;
67503;SDS011;54351;49.108;1.502;2022-10-16T18:12:23;474.88;;;438.98;;
67503;SDS011;54351;49.108;1.502;2022-10-16T18:14:54;479.50;;;441.92;;
67503;SDS011;54351;49.108;1.502;2022-10-16T18:17:25;507.75;;;468.30;;
67503;SDS011;54351;49.108;1.502;2022-10-16T18:19:53;482.10;;;445.97;;
67503;SDS011;54351;49.108;1.502;2022-10-16T18:22:19;487.17;;;449.10;;
67503;SDS011;54351;49.108;1.502;2022-10-16T18:24:48;522.80;;;482.20;;
67503;SDS011;54351;49.108;1.502;2022-10-16T18:27:14;504.67;;;465.02;;
67503;SDS011;54351;49.108;1.502;2022-10-16T18:29:40;492.38;;;453.75;;
67503;SDS011;54351;49.108;1.502;2022-10-16T18:32:06;499.75;;;462.10;;
67503;SDS011;54351;49.108;1.502;2022-10-16T18:34:32;506.48;;;467.40;;
67503;SDS011;54351;49.108;1.502;2022-10-16T18:37:01;496.50;;;458.40;;
67503;SDS011;54351;49.108;1.502;2022-10-16T18:39:27;507.80;;;468.48;;
67503;SDS011;54351;49.108;1.502;2022-10-16T18:41:53;537.55;;;494.65;;
67503;SDS011;54351;49.108;1.502;2022-10-16T18:44:23;524.15;;;482.27;;
67503;SDS011;54351;49.108;1.502;2022-10-16T18:46:50;511.33;;;470.45;;
67503;SDS011;54351;49.108;1.502;2022-10-16T18:49:21;504.08;;;463.20;;
67503;SDS011;54351;49.108;1.502;2022-10-16T18:51:47;495.25;;;455.02;;
67503;SDS011;54351;49.108;1.502;2022-10-16T18:54:16;482.63;;;443.58;;
67503;SDS011;54351;49.108;1.502;2022-10-16T18:56:43;496.75;;;456.38;;
67503;SDS011;54351;49.108;1.502;2022-10-16T18:59:09;472.60;;;434.42;;
67503;SDS011;54351;49.108;1.502;2022-10-16T19:01:36;495.33;;;453.02;;
67503;SDS011;54351;49.108;1.502;2022-10-16T19:04:04;513.30;;;471.13;;
67503;SDS011;54351;49.108;1.502;2022-10-16T19:06:41;347.88;;;320.55;;
67503;SDS011;54351;49.108;1.502;2022-10-16T19:09:08;493.63;;;453.55;;
67503;SDS011;54351;49.108;1.502;2022-10-16T19:11:34;313.77;;;288.60;;
67503;SDS011;54351;49.108;1.502;2022-10-16T19:14:00;412.55;;;379.63;;
67503;SDS011;54351;49.108;1.502;2022-10-16T19:16:29;401.92;;;370.58;;
67503;SDS011;54351;49.108;1.502;2022-10-16T19:18:57;365.42;;;336.05;;
67503;SDS011;54351;49.108;1.502;2022-10-16T19:21:24;347.83;;;320.15;;
67503;SDS011;54351;49.108;1.502;2022-10-16T19:23:51;418.40;;;385.33;;
67503;SDS011;54351;49.108;1.502;2022-10-16T19:26:18;260.27;;;238.75;;
67503;SDS011;54351;49.108;1.502;2022-10-16T19:28:44;298.02;;;274.13;;
67503;SDS011;54351;49.108;1.502;2022-10-16T19:31:17;353.92;;;327.13;;
67503;SDS011;54351;49.108;1.502;2022-10-16T19:33:45;408.88;;;377.20;;
67503;SDS011;54351;49.108;1.502;2022-10-16T19:36:15;423.10;;;388.98;;
67503;SDS011;54351;49.108;1.502;2022-10-16T19:38:42;468.30;;;430.03;;
67503;SDS011;54351;49.108;1.502;2022-10-16T19:41:09;436.77;;;402.08;;
67503;SDS011;54351;49.108;1.502;2022-10-16T19:43:35;466.95;;;431.42;;
67503;SDS011;54351;49.108;1.502;2022-10-16T19:46:06;343.63;;;315.35;;
67503;SDS011;54351;49.108;1.502;2022-10-16T19:48:32;393.08;;;359.40;;
67503;SDS011;54351;49.108;1.502;2022-10-16T19:50:59;298.00;;;271.30;;
67503;SDS011;54351;49.108;1.502;2022-10-16T19:53:25;393.65;;;360.73;;
67503;SDS011;54351;49.108;1.502;2022-10-16T19:55:55;481.20;;;442.27;;
67503;SDS011;54351;49.108;1.502;2022-10-16T19:58:21;542.50;;;498.10;;
67503;SDS011;54351;49.108;1.502;2022-10-16T20:00:47;311.13;;;286.15;;
67503;SDS011;54351;49.108;1.502;2022-10-16T20:03:14;409.52;;;375.55;;
67503;SDS011;54351;49.108;1.502;2022-10-16T20:05:51;523.33;;;481.60;;
67503;SDS011;54351;49.108;1.502;2022-10-16T20:08:17;300.25;;;273.73;;
67503;SDS011;54351;49.108;1.502;2022-10-16T20:10:47;508.38;;;465.17;;
67503;SDS011;54351;49.108;1.502;2022-10-16T20:13:13;288.70;;;262.15;;
67503;SDS011;54351;49.108;1.502;2022-10-16T20:15:41;547.30;;;504.27;;
67503;SDS011;54351;49.108;1.502;2022-10-16T20:18:07;614.95;;;560.50;;
67503;SDS011;54351;49.108;1.502;2022-10-16T20:20:37;624.72;;;569.33;;
67503;SDS011;54351;49.108;1.502;2022-10-16T20:23:03;637.15;;;580.55;;
67503;SDS011;54351;49.108;1.502;2022-10-16T20:25:32;626.55;;;570.90;;
67503;SDS011;54351;49.108;1.502;2022-10-16T20:27:59;603.20;;;550.92;;
67503;SDS011;54351;49.108;1.502;2022-10-16T20:30:32;607.17;;;554.25;;
67503;SDS011;54351;49.108;1.502;2022-10-16T20:32:58;628.88;;;573.83;;
67503;SDS011;54351;49.108;1.502;2022-10-16T20:35:24;537.03;;;491.08;;
67503;SDS011;54351;49.108;1.502;2022-10-16T20:37:53;602.83;;;549.70;;
67503;SDS011;54351;49.108;1.502;2022-10-16T20:40:25;590.53;;;538.72;;
67503;SDS011;54351;49.108;1.502;2022-10-16T20:42:55;560.38;;;511.77;;
67503;SDS011;54351;49.108;1.502;2022-10-16T20:45:22;554.10;;;507.23;;
67503;SDS011;54351;49.108;1.502;2022-10-16T20:47:54;462.23;;;423.33;;
67503;SDS011;54351;49.108;1.502;2022-10-16T20:50:20;624.85;;;569.42;;
67503;SDS011;54351;49.108;1.502;2022-10-16T20:52:47;620.55;;;564.83;;
67503;SDS011;54351;49.108;1.502;2022-10-16T20:55:13;523.20;;;477.10;;
67503;SDS011;54351;49.108;1.502;2022-10-16T20:57:41;628.63;;;570.20;;
